Terminal Aerodrome Forecast
Issued by NWS

Home | Current Version | Previous Version | Text Only | Print | Product List | Glossary On
Versions: 1 2 3 4 5 6 7 8 9 10 11 12 13 14 15 16 17 18 19 20 21
000
FTUS41 KAKQ 070110 AAA
TAFPHF
TAF AMD
KPHF 070110Z 0701/0724 16011KT P6SM VCTS BKN040CB BKN100
     FM070900 21005KT P6SM BKN010
     FM071300 19008KT P6SM SCT100=

USA.gov is the U.S. government's official web portal to all federal, state and local government web resources and services.